sensor_id;sensor_type;location;lat;lon;timestamp;P1;durP1;ratioP1;P2;durP2;ratioP2
24421;SDS011;12600;53.326;-6.298;2023-06-14T00:00:19;29.35;;;20.33;;
24421;SDS011;12600;53.326;-6.298;2023-06-14T00:03:09;27.73;;;20.67;;
24421;SDS011;12600;53.326;-6.298;2023-06-14T00:05:59;30.08;;;21.08;;
24421;SDS011;12600;53.326;-6.298;2023-06-14T00:08:48;30.20;;;21.33;;
24421;SDS011;12600;53.326;-6.298;2023-06-14T00:11:38;30.83;;;22.42;;
24421;SDS011;12600;53.326;-6.298;2023-06-14T00:14:29;31.45;;;21.65;;
24421;SDS011;12600;53.326;-6.298;2023-06-14T00:17:18;28.60;;;22.15;;
24421;SDS011;12600;53.326;-6.298;2023-06-14T00:20:08;31.65;;;22.50;;
24421;SDS011;12600;53.326;-6.298;2023-06-14T00:22:59;33.50;;;22.75;;
24421;SDS011;12600;53.326;-6.298;2023-06-14T00:25:49;29.45;;;21.15;;
24421;SDS011;12600;53.326;-6.298;2023-06-14T00:28:38;31.08;;;22.30;;
24421;SDS011;12600;53.326;-6.298;2023-06-14T00:31:29;31.13;;;22.27;;
24421;SDS011;12600;53.326;-6.298;2023-06-14T00:34:19;33.63;;;23.10;;
24421;SDS011;12600;53.326;-6.298;2023-06-14T00:37:08;33.00;;;22.77;;
24421;SDS011;12600;53.326;-6.298;2023-06-14T00:39:58;35.38;;;22.92;;
24421;SDS011;12600;53.326;-6.298;2023-06-14T00:42:47;34.95;;;22.42;;
24421;SDS011;12600;53.326;-6.298;2023-06-14T00:45:37;36.05;;;23.80;;
24421;SDS011;12600;53.326;-6.298;2023-06-14T00:48:28;38.83;;;23.30;;
24421;SDS011;12600;53.326;-6.298;2023-06-14T00:51:19;35.80;;;23.80;;
24421;SDS011;12600;53.326;-6.298;2023-06-14T00:54:09;37.83;;;24.65;;
24421;SDS011;12600;53.326;-6.298;2023-06-14T00:56:58;34.97;;;24.13;;
24421;SDS011;12600;53.326;-6.298;2023-06-14T00:59:48;36.47;;;25.20;;
24421;SDS011;12600;53.326;-6.298;2023-06-14T01:02:38;34.67;;;24.67;;
24421;SDS011;12600;53.326;-6.298;2023-06-14T01:05:30;37.00;;;24.40;;
24421;SDS011;12600;53.326;-6.298;2023-06-14T01:08:22;33.77;;;24.80;;
24421;SDS011;12600;53.326;-6.298;2023-06-14T01:11:25;35.35;;;23.60;;
24421;SDS011;12600;53.326;-6.298;2023-06-14T01:14:21;37.80;;;25.30;;
24421;SDS011;12600;53.326;-6.298;2023-06-14T01:17:12;35.97;;;24.38;;
24421;SDS011;12600;53.326;-6.298;2023-06-14T01:20:04;34.83;;;24.15;;
24421;SDS011;12600;53.326;-6.298;2023-06-14T01:22:59;34.17;;;24.73;;
24421;SDS011;12600;53.326;-6.298;2023-06-14T01:25:50;33.78;;;24.52;;
24421;SDS011;12600;53.326;-6.298;2023-06-14T01:28:40;39.00;;;24.70;;
24421;SDS011;12600;53.326;-6.298;2023-06-14T01:31:35;35.40;;;24.15;;
24421;SDS011;12600;53.326;-6.298;2023-06-14T01:34:28;31.35;;;23.73;;
24421;SDS011;12600;53.326;-6.298;2023-06-14T01:37:19;32.92;;;24.15;;
24421;SDS011;12600;53.326;-6.298;2023-06-14T01:40:11;33.25;;;24.33;;
24421;SDS011;12600;53.326;-6.298;2023-06-14T01:43:03;33.10;;;23.85;;
24421;SDS011;12600;53.326;-6.298;2023-06-14T01:45:54;30.17;;;22.25;;
24421;SDS011;12600;53.326;-6.298;2023-06-14T01:48:47;29.98;;;22.35;;
24421;SDS011;12600;53.326;-6.298;2023-06-14T01:51:36;30.65;;;23.33;;
24421;SDS011;12600;53.326;-6.298;2023-06-14T01:54:26;31.45;;;22.95;;
24421;SDS011;12600;53.326;-6.298;2023-06-14T01:57:17;30.55;;;22.50;;
24421;SDS011;12600;53.326;-6.298;2023-06-14T02:00:09;28.50;;;21.77;;
24421;SDS011;12600;53.326;-6.298;2023-06-14T02:03:00;32.15;;;22.30;;
24421;SDS011;12600;53.326;-6.298;2023-06-14T02:05:51;27.75;;;21.52;;
24421;SDS011;12600;53.326;-6.298;2023-06-14T02:08:41;28.70;;;22.15;;
24421;SDS011;12600;53.326;-6.298;2023-06-14T02:11:31;26.48;;;20.20;;
24421;SDS011;12600;53.326;-6.298;2023-06-14T02:14:22;25.80;;;20.08;;
24421;SDS011;12600;53.326;-6.298;2023-06-14T02:17:14;28.67;;;19.58;;
24421;SDS011;12600;53.326;-6.298;2023-06-14T02:20:04;26.73;;;19.15;;
24421;SDS011;12600;53.326;-6.298;2023-06-14T02:22:56;22.25;;;19.65;;
24421;SDS011;12600;53.326;-6.298;2023-06-14T02:25:46;28.83;;;19.67;;
24421;SDS011;12600;53.326;-6.298;2023-06-14T02:28:36;26.75;;;19.85;;
24421;SDS011;12600;53.326;-6.298;2023-06-14T02:31:29;26.13;;;19.45;;
24421;SDS011;12600;53.326;-6.298;2023-06-14T02:34:18;27.05;;;20.15;;
24421;SDS011;12600;53.326;-6.298;2023-06-14T02:37:09;25.80;;;19.52;;
24421;SDS011;12600;53.326;-6.298;2023-06-14T02:40:00;26.98;;;19.75;;
24421;SDS011;12600;53.326;-6.298;2023-06-14T02:42:51;27.02;;;20.30;;
24421;SDS011;12600;53.326;-6.298;2023-06-14T02:45:40;27.98;;;19.85;;
24421;SDS011;12600;53.326;-6.298;2023-06-14T02:48:31;25.58;;;19.75;;
24421;SDS011;12600;53.326;-6.298;2023-06-14T02:51:21;23.40;;;19.50;;
24421;SDS011;12600;53.326;-6.298;2023-06-14T02:54:10;25.40;;;19.02;;
24421;SDS011;12600;53.326;-6.298;2023-06-14T02:56:59;24.00;;;19.13;;
24421;SDS011;12600;53.326;-6.298;2023-06-14T02:59:48;25.20;;;18.92;;
24421;SDS011;12600;53.326;-6.298;2023-06-14T03:02:38;24.00;;;18.52;;
24421;SDS011;12600;53.326;-6.298;2023-06-14T03:05:31;24.60;;;19.52;;
24421;SDS011;12600;53.326;-6.298;2023-06-14T03:08:21;23.55;;;18.88;;
24421;SDS011;12600;53.326;-6.298;2023-06-14T03:11:15;24.50;;;18.48;;
24421;SDS011;12600;53.326;-6.298;2023-06-14T03:16:58;23.92;;;17.80;;
24421;SDS011;12600;53.326;-6.298;2023-06-14T03:19:49;23.23;;;18.58;;
24421;SDS011;12600;53.326;-6.298;2023-06-14T03:22:40;22.08;;;17.75;;
24421;SDS011;12600;53.326;-6.298;2023-06-14T03:25:34;20.65;;;16.45;;
24421;SDS011;12600;53.326;-6.298;2023-06-14T03:28:26;23.10;;;17.07;;
24421;SDS011;12600;53.326;-6.298;2023-06-14T03:31:16;19.38;;;16.30;;
24421;SDS011;12600;53.326;-6.298;2023-06-14T03:34:07;20.83;;;15.05;;
24421;SDS011;12600;53.326;-6.298;2023-06-14T03:36:58;19.05;;;14.43;;
24421;SDS011;12600;53.326;-6.298;2023-06-14T03:39:50;19.98;;;15.02;;
24421;SDS011;12600;53.326;-6.298;2023-06-14T03:42:42;19.65;;;13.52;;
24421;SDS011;12600;53.326;-6.298;2023-06-14T03:45:32;18.05;;;14.05;;
24421;SDS011;12600;53.326;-6.298;2023-06-14T03:48:22;15.05;;;13.45;;
24421;SDS011;12600;53.326;-6.298;2023-06-14T03:51:12;16.67;;;13.43;;
24421;SDS011;12600;53.326;-6.298;2023-06-14T03:54:03;18.70;;;13.05;;
24421;SDS011;12600;53.326;-6.298;2023-06-14T03:57:15;18.52;;;12.60;;
24421;SDS011;12600;53.326;-6.298;2023-06-14T04:00:05;18.05;;;12.70;;
24421;SDS011;12600;53.326;-6.298;2023-06-14T04:03:00;18.45;;;12.55;;
24421;SDS011;12600;53.326;-6.298;2023-06-14T04:05:50;15.80;;;12.52;;
24421;SDS011;12600;53.326;-6.298;2023-06-14T04:08:44;13.32;;;11.10;;
24421;SDS011;12600;53.326;-6.298;2023-06-14T04:11:33;15.18;;;12.50;;
24421;SDS011;12600;53.326;-6.298;2023-06-14T04:14:24;16.15;;;12.65;;
24421;SDS011;12600;53.326;-6.298;2023-06-14T04:17:13;15.05;;;11.45;;
24421;SDS011;12600;53.326;-6.298;2023-06-14T04:20:05;15.30;;;11.73;;
24421;SDS011;12600;53.326;-6.298;2023-06-14T04:22:57;15.43;;;11.70;;
24421;SDS011;12600;53.326;-6.298;2023-06-14T04:26:01;16.10;;;13.00;;
24421;SDS011;12600;53.326;-6.298;2023-06-14T04:28:50;17.52;;;13.60;;
24421;SDS011;12600;53.326;-6.298;2023-06-14T04:31:42;18.13;;;14.05;;
24421;SDS011;12600;53.326;-6.298;2023-06-14T04:34:33;20.95;;;12.63;;
24421;SDS011;12600;53.326;-6.298;2023-06-14T04:37:25;19.10;;;13.20;;
24421;SDS011;12600;53.326;-6.298;2023-06-14T04:40:15;14.98;;;12.38;;
24421;SDS011;12600;53.326;-6.298;2023-06-14T04:43:04;14.10;;;11.43;;
24421;SDS011;12600;53.326;-6.298;2023-06-14T04:45:55;15.32;;;11.30;;
24421;SDS011;12600;53.326;-6.298;2023-06-14T04:48:47;14.65;;;12.10;;
24421;SDS011;12600;53.326;-6.298;2023-06-14T04:51:38;17.13;;;11.40;;
24421;SDS011;12600;53.326;-6.298;2023-06-14T04:54:38;15.45;;;12.35;;
24421;SDS011;12600;53.326;-6.298;2023-06-14T04:57:38;19.70;;;12.77;;
24421;SDS011;12600;53.326;-6.298;2023-06-14T05:00:42;14.90;;;11.77;;
24421;SDS011;12600;53.326;-6.298;2023-06-14T05:03:31;19.85;;;12.07;;
24421;SDS011;12600;53.326;-6.298;2023-06-14T05:06:23;15.48;;;12.00;;
24421;SDS011;12600;53.326;-6.298;2023-06-14T05:09:13;14.90;;;12.18;;
24421;SDS011;12600;53.326;-6.298;2023-06-14T05:12:04;17.05;;;12.82;;
24421;SDS011;12600;53.326;-6.298;2023-06-14T05:14:57;15.20;;;11.55;;
24421;SDS011;12600;53.326;-6.298;2023-06-14T05:17:47;15.23;;;11.77;;
24421;SDS011;12600;53.326;-6.298;2023-06-14T05:20:42;15.05;;;12.07;;
24421;SDS011;12600;53.326;-6.298;2023-06-14T05:23:33;16.27;;;11.20;;
24421;SDS011;12600;53.326;-6.298;2023-06-14T05:26:30;15.57;;;11.32;;
24421;SDS011;12600;53.326;-6.298;2023-06-14T05:29:20;14.38;;;10.32;;
24421;SDS011;12600;53.326;-6.298;2023-06-14T05:32:11;15.98;;;11.48;;
24421;SDS011;12600;53.326;-6.298;2023-06-14T05:35:05;16.52;;;11.40;;
24421;SDS011;12600;53.326;-6.298;2023-06-14T05:37:55;15.95;;;10.68;;
24421;SDS011;12600;53.326;-6.298;2023-06-14T05:40:46;16.45;;;10.70;;
24421;SDS011;12600;53.326;-6.298;2023-06-14T05:43:36;15.55;;;10.32;;
24421;SDS011;12600;53.326;-6.298;2023-06-14T05:46:25;14.13;;;10.20;;
24421;SDS011;12600;53.326;-6.298;2023-06-14T05:49:15;13.40;;;9.93;;
24421;SDS011;12600;53.326;-6.298;2023-06-14T05:52:09;15.32;;;9.68;;
24421;SDS011;12600;53.326;-6.298;2023-06-14T05:55:01;14.43;;;10.02;;
24421;SDS011;12600;53.326;-6.298;2023-06-14T05:57:52;17.38;;;9.60;;
24421;SDS011;12600;53.326;-6.298;2023-06-14T06:00:44;12.30;;;9.63;;
24421;SDS011;12600;53.326;-6.298;2023-06-14T06:03:34;12.82;;;8.85;;
24421;SDS011;12600;53.326;-6.298;2023-06-14T06:06:24;12.82;;;8.40;;
24421;SDS011;12600;53.326;-6.298;2023-06-14T06:09:13;12.75;;;8.68;;
24421;SDS011;12600;53.326;-6.298;2023-06-14T06:12:06;16.40;;;8.00;;
24421;SDS011;12600;53.326;-6.298;2023-06-14T06:14:57;10.10;;;7.93;;
24421;SDS011;12600;53.326;-6.298;2023-06-14T06:17:46;10.35;;;8.30;;
24421;SDS011;12600;53.326;-6.298;2023-06-14T06:20:42;13.10;;;7.93;;
24421;SDS011;12600;53.326;-6.298;2023-06-14T06:23:33;9.65;;;7.88;;
24421;SDS011;12600;53.326;-6.298;2023-06-14T06:26:22;13.43;;;9.05;;
24421;SDS011;12600;53.326;-6.298;2023-06-14T06:29:14;14.60;;;8.70;;
24421;SDS011;12600;53.326;-6.298;2023-06-14T06:32:05;14.75;;;8.40;;
24421;SDS011;12600;53.326;-6.298;2023-06-14T06:34:55;12.82;;;9.75;;
24421;SDS011;12600;53.326;-6.298;2023-06-14T06:37:47;16.60;;;9.63;;
24421;SDS011;12600;53.326;-6.298;2023-06-14T06:40:36;14.18;;;8.70;;
24421;SDS011;12600;53.326;-6.298;2023-06-14T06:43:25;13.07;;;8.48;;
24421;SDS011;12600;53.326;-6.298;2023-06-14T06:46:17;13.98;;;9.02;;
24421;SDS011;12600;53.326;-6.298;2023-06-14T06:49:08;11.70;;;8.65;;
24421;SDS011;12600;53.326;-6.298;2023-06-14T06:51:59;13.30;;;8.80;;
24421;SDS011;12600;53.326;-6.298;2023-06-14T06:54:50;11.18;;;8.68;;
24421;SDS011;12600;53.326;-6.298;2023-06-14T06:57:42;10.90;;;8.20;;
24421;SDS011;12600;53.326;-6.298;2023-06-14T07:00:31;13.07;;;8.38;;
24421;SDS011;12600;53.326;-6.298;2023-06-14T07:03:20;10.80;;;8.45;;
24421;SDS011;12600;53.326;-6.298;2023-06-14T07:06:11;14.40;;;8.95;;
24421;SDS011;12600;53.326;-6.298;2023-06-14T07:09:01;10.90;;;7.95;;
24421;SDS011;12600;53.326;-6.298;2023-06-14T07:11:55;11.18;;;8.77;;
24421;SDS011;12600;53.326;-6.298;2023-06-14T07:14:44;10.75;;;7.55;;
24421;SDS011;12600;53.326;-6.298;2023-06-14T07:17:34;10.90;;;7.78;;
24421;SDS011;12600;53.326;-6.298;2023-06-14T07:20:24;12.45;;;7.95;;
24421;SDS011;12600;53.326;-6.298;2023-06-14T07:23:15;11.05;;;7.93;;
24421;SDS011;12600;53.326;-6.298;2023-06-14T07:26:04;9.48;;;7.60;;
24421;SDS011;12600;53.326;-6.298;2023-06-14T07:28:53;10.70;;;6.95;;
24421;SDS011;12600;53.326;-6.298;2023-06-14T07:31:43;8.88;;;6.63;;
24421;SDS011;12600;53.326;-6.298;2023-06-14T07:34:32;11.02;;;6.70;;
24421;SDS011;12600;53.326;-6.298;2023-06-14T07:37:21;8.57;;;6.35;;
24421;SDS011;12600;53.326;-6.298;2023-06-14T07:40:13;8.45;;;6.53;;
24421;SDS011;12600;53.326;-6.298;2023-06-14T07:43:02;9.23;;;6.57;;
24421;SDS011;12600;53.326;-6.298;2023-06-14T07:45:51;8.40;;;6.47;;
24421;SDS011;12600;53.326;-6.298;2023-06-14T07:48:53;11.85;;;7.30;;
24421;SDS011;12600;53.326;-6.298;2023-06-14T07:51:43;8.10;;;6.78;;
24421;SDS011;12600;53.326;-6.298;2023-06-14T07:54:33;10.52;;;7.00;;
24421;SDS011;12600;53.326;-6.298;2023-06-14T07:57:24;8.88;;;6.28;;
24421;SDS011;12600;53.326;-6.298;2023-06-14T08:00:14;9.70;;;6.47;;
24421;SDS011;12600;53.326;-6.298;2023-06-14T08:03:05;11.88;;;6.90;;
24421;SDS011;12600;53.326;-6.298;2023-06-14T08:05:55;10.40;;;7.47;;
24421;SDS011;12600;53.326;-6.298;2023-06-14T08:08:44;9.25;;;6.90;;
24421;SDS011;12600;53.326;-6.298;2023-06-14T08:11:33;9.40;;;6.60;;
24421;SDS011;12600;53.326;-6.298;2023-06-14T08:14:25;9.93;;;7.03;;
24421;SDS011;12600;53.326;-6.298;2023-06-14T08:17:16;10.30;;;7.07;;
24421;SDS011;12600;53.326;-6.298;2023-06-14T08:20:05;7.65;;;6.45;;
24421;SDS011;12600;53.326;-6.298;2023-06-14T08:22:56;8.05;;;7.10;;
24421;SDS011;12600;53.326;-6.298;2023-06-14T08:25:46;10.98;;;7.15;;
24421;SDS011;12600;53.326;-6.298;2023-06-14T08:28:36;9.25;;;6.80;;
24421;SDS011;12600;53.326;-6.298;2023-06-14T08:31:26;9.48;;;6.90;;
24421;SDS011;12600;53.326;-6.298;2023-06-14T08:34:16;11.35;;;7.05;;
24421;SDS011;12600;53.326;-6.298;2023-06-14T08:37:05;10.95;;;7.30;;
24421;SDS011;12600;53.326;-6.298;2023-06-14T08:39:55;9.07;;;7.50;;
24421;SDS011;12600;53.326;-6.298;2023-06-14T08:42:44;9.73;;;7.18;;
24421;SDS011;12600;53.326;-6.298;2023-06-14T08:45:37;10.85;;;6.75;;
24421;SDS011;12600;53.326;-6.298;2023-06-14T08:48:28;11.63;;;6.93;;
24421;SDS011;12600;53.326;-6.298;2023-06-14T08:51:19;11.35;;;6.60;;
24421;SDS011;12600;53.326;-6.298;2023-06-14T08:54:10;7.80;;;6.50;;
24421;SDS011;12600;53.326;-6.298;2023-06-14T08:57:01;8.57;;;6.55;;
24421;SDS011;12600;53.326;-6.298;2023-06-14T08:59:54;9.55;;;6.53;;
24421;SDS011;12600;53.326;-6.298;2023-06-14T09:02:44;8.13;;;5.88;;
24421;SDS011;12600;53.326;-6.298;2023-06-14T09:05:34;8.48;;;6.15;;
24421;SDS011;12600;53.326;-6.298;2023-06-14T09:08:24;7.65;;;6.00;;
24421;SDS011;12600;53.326;-6.298;2023-06-14T09:11:17;9.75;;;5.97;;
24421;SDS011;12600;53.326;-6.298;2023-06-14T09:14:07;9.27;;;5.70;;
24421;SDS011;12600;53.326;-6.298;2023-06-14T09:16:58;10.55;;;5.60;;
24421;SDS011;12600;53.326;-6.298;2023-06-14T09:19:49;7.85;;;5.00;;
24421;SDS011;12600;53.326;-6.298;2023-06-14T09:22:48;6.75;;;4.70;;
24421;SDS011;12600;53.326;-6.298;2023-06-14T09:25:45;7.03;;;4.45;;
24421;SDS011;12600;53.326;-6.298;2023-06-14T09:28:37;7.80;;;4.80;;
24421;SDS011;12600;53.326;-6.298;2023-06-14T09:31:31;9.77;;;4.97;;
24421;SDS011;12600;53.326;-6.298;2023-06-14T09:34:24;6.72;;;5.13;;
24421;SDS011;12600;53.326;-6.298;2023-06-14T09:37:13;7.95;;;5.00;;
24421;SDS011;12600;53.326;-6.298;2023-06-14T09:40:21;6.53;;;4.80;;
24421;SDS011;12600;53.326;-6.298;2023-06-14T09:43:12;9.85;;;4.93;;
24421;SDS011;12600;53.326;-6.298;2023-06-14T09:46:05;8.85;;;5.20;;
24421;SDS011;12600;53.326;-6.298;2023-06-14T09:49:01;9.70;;;4.70;;
24421;SDS011;12600;53.326;-6.298;2023-06-14T09:51:55;8.77;;;5.32;;
24421;SDS011;12600;53.326;-6.298;2023-06-14T09:54:47;9.52;;;4.85;;
24421;SDS011;12600;53.326;-6.298;2023-06-14T09:57:42;8.95;;;4.75;;
24421;SDS011;12600;53.326;-6.298;2023-06-14T10:00:36;9.65;;;5.40;;
24421;SDS011;12600;53.326;-6.298;2023-06-14T10:03:30;7.65;;;4.75;;
24421;SDS011;12600;53.326;-6.298;2023-06-14T10:06:46;11.65;;;5.30;;
24421;SDS011;12600;53.326;-6.298;2023-06-14T10:12:31;12.23;;;5.13;;
24421;SDS011;12600;53.326;-6.298;2023-06-14T10:15:23;8.32;;;5.03;;
24421;SDS011;12600;53.326;-6.298;2023-06-14T10:18:22;13.18;;;5.45;;
24421;SDS011;12600;53.326;-6.298;2023-06-14T10:21:22;10.43;;;5.90;;
24421;SDS011;12600;53.326;-6.298;2023-06-14T10:24:25;11.88;;;5.78;;
24421;SDS011;12600;53.326;-6.298;2023-06-14T10:27:21;11.73;;;5.65;;
24421;SDS011;12600;53.326;-6.298;2023-06-14T10:30:12;9.52;;;5.70;;
24421;SDS011;12600;53.326;-6.298;2023-06-14T10:33:08;18.00;;;6.00;;
24421;SDS011;12600;53.326;-6.298;2023-06-14T10:36:23;10.30;;;5.90;;
24421;SDS011;12600;53.326;-6.298;2023-06-14T10:39:18;10.93;;;6.13;;
24421;SDS011;12600;53.326;-6.298;2023-06-14T10:42:09;11.07;;;5.35;;
24421;SDS011;12600;53.326;-6.298;2023-06-14T10:45:00;12.95;;;5.88;;
24421;SDS011;12600;53.326;-6.298;2023-06-14T10:47:51;11.00;;;5.47;;
24421;SDS011;12600;53.326;-6.298;2023-06-14T10:50:43;13.45;;;5.88;;
24421;SDS011;12600;53.326;-6.298;2023-06-14T10:53:38;10.18;;;5.65;;
24421;SDS011;12600;53.326;-6.298;2023-06-14T10:56:29;8.43;;;5.32;;
24421;SDS011;12600;53.326;-6.298;2023-06-14T10:59:19;11.55;;;5.97;;
24421;SDS011;12600;53.326;-6.298;2023-06-14T11:02:14;10.52;;;6.38;;
24421;SDS011;12600;53.326;-6.298;2023-06-14T11:05:48;9.32;;;6.40;;
24421;SDS011;12600;53.326;-6.298;2023-06-14T11:12:48;11.23;;;6.25;;
24421;SDS011;12600;53.326;-6.298;2023-06-14T11:15:43;12.02;;;6.97;;
24421;SDS011;12600;53.326;-6.298;2023-06-14T11:18:34;12.40;;;7.05;;
24421;SDS011;12600;53.326;-6.298;2023-06-14T11:21:27;14.75;;;7.60;;
24421;SDS011;12600;53.326;-6.298;2023-06-14T11:24:19;14.82;;;8.15;;
24421;SDS011;12600;53.326;-6.298;2023-06-14T11:27:08;14.88;;;8.70;;
24421;SDS011;12600;53.326;-6.298;2023-06-14T11:29:58;17.98;;;8.85;;
24421;SDS011;12600;53.326;-6.298;2023-06-14T11:32:50;15.07;;;8.65;;
24421;SDS011;12600;53.326;-6.298;2023-06-14T11:35:45;15.18;;;7.97;;
24421;SDS011;12600;53.326;-6.298;2023-06-14T11:38:39;14.55;;;7.93;;
24421;SDS011;12600;53.326;-6.298;2023-06-14T11:41:35;13.63;;;8.63;;
24421;SDS011;12600;53.326;-6.298;2023-06-14T11:44:27;15.40;;;8.20;;
24421;SDS011;12600;53.326;-6.298;2023-06-14T11:47:17;11.20;;;7.60;;
24421;SDS011;12600;53.326;-6.298;2023-06-14T11:50:07;11.82;;;8.27;;
24421;SDS011;12600;53.326;-6.298;2023-06-14T11:52:58;14.75;;;8.00;;
24421;SDS011;12600;53.326;-6.298;2023-06-14T11:55:55;14.82;;;8.45;;
24421;SDS011;12600;53.326;-6.298;2023-06-14T11:58:45;15.45;;;9.00;;
24421;SDS011;12600;53.326;-6.298;2023-06-14T12:01:35;13.98;;;8.13;;
24421;SDS011;12600;53.326;-6.298;2023-06-14T12:04:26;18.15;;;7.95;;
24421;SDS011;12600;53.326;-6.298;2023-06-14T12:07:17;14.98;;;8.57;;
24421;SDS011;12600;53.326;-6.298;2023-06-14T12:13:01;18.00;;;8.40;;
24421;SDS011;12600;53.326;-6.298;2023-06-14T12:15:54;15.07;;;8.48;;
24421;SDS011;12600;53.326;-6.298;2023-06-14T12:18:44;15.15;;;8.65;;
24421;SDS011;12600;53.326;-6.298;2023-06-14T12:21:33;16.83;;;8.13;;
24421;SDS011;12600;53.326;-6.298;2023-06-14T12:24:27;16.60;;;8.35;;
24421;SDS011;12600;53.326;-6.298;2023-06-14T12:27:17;15.70;;;8.73;;
24421;SDS011;12600;53.326;-6.298;2023-06-14T12:30:17;14.55;;;8.05;;
24421;SDS011;12600;53.326;-6.298;2023-06-14T12:33:07;16.05;;;7.90;;
24421;SDS011;12600;53.326;-6.298;2023-06-14T12:35:56;18.95;;;7.78;;
24421;SDS011;12600;53.326;-6.298;2023-06-14T12:38:46;14.25;;;7.50;;
24421;SDS011;12600;53.326;-6.298;2023-06-14T12:41:35;15.80;;;7.30;;
24421;SDS011;12600;53.326;-6.298;2023-06-14T12:44:25;14.93;;;7.70;;
24421;SDS011;12600;53.326;-6.298;2023-06-14T12:47:16;16.38;;;8.35;;
24421;SDS011;12600;53.326;-6.298;2023-06-14T12:50:05;14.75;;;7.93;;
24421;SDS011;12600;53.326;-6.298;2023-06-14T12:52:56;17.42;;;7.68;;
24421;SDS011;12600;53.326;-6.298;2023-06-14T12:55:45;17.27;;;8.70;;
24421;SDS011;12600;53.326;-6.298;2023-06-14T12:58:35;19.77;;;11.75;;
24421;SDS011;12600;53.326;-6.298;2023-06-14T13:01:24;18.70;;;8.70;;
24421;SDS011;12600;53.326;-6.298;2023-06-14T13:04:15;15.20;;;8.18;;
24421;SDS011;12600;53.326;-6.298;2023-06-14T13:07:05;18.60;;;8.45;;
24421;SDS011;12600;53.326;-6.298;2023-06-14T13:09:54;15.00;;;8.95;;
24421;SDS011;12600;53.326;-6.298;2023-06-14T13:12:43;15.00;;;8.70;;
24421;SDS011;12600;53.326;-6.298;2023-06-14T13:15:33;19.13;;;9.50;;
24421;SDS011;12600;53.326;-6.298;2023-06-14T13:18:22;18.40;;;8.45;;
24421;SDS011;12600;53.326;-6.298;2023-06-14T13:21:13;17.67;;;8.43;;
24421;SDS011;12600;53.326;-6.298;2023-06-14T13:24:03;16.58;;;8.70;;
24421;SDS011;12600;53.326;-6.298;2023-06-14T13:26:53;19.10;;;8.95;;
24421;SDS011;12600;53.326;-6.298;2023-06-14T13:29:42;19.13;;;9.35;;
24421;SDS011;12600;53.326;-6.298;2023-06-14T13:32:32;16.27;;;8.65;;
24421;SDS011;12600;53.326;-6.298;2023-06-14T13:35:21;15.95;;;8.40;;
24421;SDS011;12600;53.326;-6.298;2023-06-14T13:38:13;21.08;;;8.85;;
24421;SDS011;12600;53.326;-6.298;2023-06-14T13:41:02;17.77;;;8.80;;
24421;SDS011;12600;53.326;-6.298;2023-06-14T13:43:52;16.33;;;8.45;;
24421;SDS011;12600;53.326;-6.298;2023-06-14T13:46:41;17.92;;;8.75;;
24421;SDS011;12600;53.326;-6.298;2023-06-14T13:49:31;17.67;;;8.45;;
24421;SDS011;12600;53.326;-6.298;2023-06-14T13:52:22;16.88;;;8.05;;
24421;SDS011;12600;53.326;-6.298;2023-06-14T13:55:13;15.60;;;8.45;;
24421;SDS011;12600;53.326;-6.298;2023-06-14T13:58:02;16.52;;;8.40;;
24421;SDS011;12600;53.326;-6.298;2023-06-14T14:00:51;21.83;;;8.55;;
24421;SDS011;12600;53.326;-6.298;2023-06-14T14:03:41;19.65;;;8.30;;
24421;SDS011;12600;53.326;-6.298;2023-06-14T14:06:32;21.02;;;8.20;;
24421;SDS011;12600;53.326;-6.298;2023-06-14T14:09:22;14.02;;;7.53;;
24421;SDS011;12600;53.326;-6.298;2023-06-14T14:12:13;16.13;;;8.80;;
24421;SDS011;12600;53.326;-6.298;2023-06-14T14:15:03;14.85;;;8.07;;
24421;SDS011;12600;53.326;-6.298;2023-06-14T14:17:55;17.15;;;8.63;;
24421;SDS011;12600;53.326;-6.298;2023-06-14T14:20:45;18.27;;;8.15;;
24421;SDS011;12600;53.326;-6.298;2023-06-14T14:23:35;14.98;;;7.85;;
24421;SDS011;12600;53.326;-6.298;2023-06-14T14:26:27;18.70;;;8.50;;
24421;SDS011;12600;53.326;-6.298;2023-06-14T14:29:18;14.80;;;8.00;;
24421;SDS011;12600;53.326;-6.298;2023-06-14T14:32:10;16.73;;;8.80;;
24421;SDS011;12600;53.326;-6.298;2023-06-14T14:35:01;15.55;;;8.25;;
24421;SDS011;12600;53.326;-6.298;2023-06-14T14:37:51;17.15;;;8.43;;
24421;SDS011;12600;53.326;-6.298;2023-06-14T14:40:40;18.60;;;8.63;;
24421;SDS011;12600;53.326;-6.298;2023-06-14T14:43:30;17.02;;;8.10;;
24421;SDS011;12600;53.326;-6.298;2023-06-14T14:46:21;21.15;;;7.65;;
24421;SDS011;12600;53.326;-6.298;2023-06-14T14:49:10;15.15;;;8.45;;
24421;SDS011;12600;53.326;-6.298;2023-06-14T14:52:00;18.33;;;8.57;;
24421;SDS011;12600;53.326;-6.298;2023-06-14T14:55:09;13.57;;;8.40;;
24421;SDS011;12600;53.326;-6.298;2023-06-14T14:57:58;21.33;;;8.32;;
24421;SDS011;12600;53.326;-6.298;2023-06-14T15:00:47;16.67;;;8.80;;
24421;SDS011;12600;53.326;-6.298;2023-06-14T15:03:38;14.65;;;8.48;;
24421;SDS011;12600;53.326;-6.298;2023-06-14T15:06:45;20.80;;;8.27;;
24421;SDS011;12600;53.326;-6.298;2023-06-14T15:09:35;15.77;;;8.15;;
24421;SDS011;12600;53.326;-6.298;2023-06-14T15:12:24;16.75;;;8.13;;
24421;SDS011;12600;53.326;-6.298;2023-06-14T15:15:16;14.93;;;8.90;;
24421;SDS011;12600;53.326;-6.298;2023-06-14T15:18:06;13.50;;;7.85;;
24421;SDS011;12600;53.326;-6.298;2023-06-14T15:20:58;17.58;;;8.43;;
24421;SDS011;12600;53.326;-6.298;2023-06-14T15:23:47;16.77;;;7.97;;
24421;SDS011;12600;53.326;-6.298;2023-06-14T15:26:39;18.03;;;8.53;;
24421;SDS011;12600;53.326;-6.298;2023-06-14T15:29:30;13.95;;;8.02;;
24421;SDS011;12600;53.326;-6.298;2023-06-14T15:32:21;16.42;;;7.93;;
24421;SDS011;12600;53.326;-6.298;2023-06-14T15:35:11;16.80;;;7.78;;
24421;SDS011;12600;53.326;-6.298;2023-06-14T15:38:04;15.70;;;7.97;;
24421;SDS011;12600;53.326;-6.298;2023-06-14T15:40:59;15.30;;;7.78;;
24421;SDS011;12600;53.326;-6.298;2023-06-14T15:43:50;14.90;;;7.72;;
24421;SDS011;12600;53.326;-6.298;2023-06-14T15:46:40;13.85;;;7.35;;
24421;SDS011;12600;53.326;-6.298;2023-06-14T15:49:29;18.17;;;7.63;;
24421;SDS011;12600;53.326;-6.298;2023-06-14T15:52:19;15.73;;;7.18;;
24421;SDS011;12600;53.326;-6.298;2023-06-14T15:55:09;12.93;;;7.22;;
24421;SDS011;12600;53.326;-6.298;2023-06-14T15:57:59;14.60;;;7.68;;
24421;SDS011;12600;53.326;-6.298;2023-06-14T16:00:48;14.00;;;7.18;;
24421;SDS011;12600;53.326;-6.298;2023-06-14T16:03:38;15.82;;;7.80;;
24421;SDS011;12600;53.326;-6.298;2023-06-14T16:06:27;13.90;;;7.78;;
24421;SDS011;12600;53.326;-6.298;2023-06-14T16:09:17;14.57;;;8.15;;
24421;SDS011;12600;53.326;-6.298;2023-06-14T16:12:08;13.27;;;7.35;;
24421;SDS011;12600;53.326;-6.298;2023-06-14T16:14:58;13.25;;;7.03;;
24421;SDS011;12600;53.326;-6.298;2023-06-14T16:17:48;13.32;;;7.95;;
24421;SDS011;12600;53.326;-6.298;2023-06-14T16:20:37;16.95;;;7.47;;
24421;SDS011;12600;53.326;-6.298;2023-06-14T16:23:27;15.77;;;7.60;;
24421;SDS011;12600;53.326;-6.298;2023-06-14T16:26:16;16.63;;;8.20;;
24421;SDS011;12600;53.326;-6.298;2023-06-14T16:29:07;16.30;;;7.85;;
24421;SDS011;12600;53.326;-6.298;2023-06-14T16:31:56;17.38;;;7.85;;
24421;SDS011;12600;53.326;-6.298;2023-06-14T16:34:46;16.70;;;7.78;;
24421;SDS011;12600;53.326;-6.298;2023-06-14T16:37:35;14.32;;;8.10;;
24421;SDS011;12600;53.326;-6.298;2023-06-14T16:40:25;13.75;;;7.13;;
24421;SDS011;12600;53.326;-6.298;2023-06-14T16:43:14;14.95;;;7.05;;
24421;SDS011;12600;53.326;-6.298;2023-06-14T16:46:05;17.58;;;8.30;;
24421;SDS011;12600;53.326;-6.298;2023-06-14T16:48:55;18.13;;;8.27;;
24421;SDS011;12600;53.326;-6.298;2023-06-14T16:51:44;16.42;;;7.72;;